createdAt,value
2018-12-16T00:02:32.837Z,13.20
2018-12-16T00:05:16.780Z,12.30
2018-12-16T00:08:40.276Z,13.13
2018-12-16T00:11:28.841Z,12.17
2018-12-16T00:14:11.518Z,12.37
2018-12-16T00:16:55.082Z,12.70
2018-12-16T00:19:39.684Z,12.67
2018-12-16T00:22:29.717Z,12.83
2018-12-16T00:25:09.912Z,13.20
2018-12-16T00:27:53.794Z,13.33
2018-12-16T00:30:37.042Z,13.70
2018-12-16T00:33:22.665Z,12.47
2018-12-16T00:36:09.139Z,13.23
2018-12-16T00:38:53.548Z,13.47
2018-12-16T00:41:36.119Z,11.97
2018-12-16T00:44:19.668Z,12.13
2018-12-16T00:47:03.889Z,11.83
2018-12-16T00:49:47.418Z,11.67
2018-12-16T00:52:36.335Z,11.13
2018-12-16T00:55:15.148Z,13.00
2018-12-16T00:57:58.180Z,12.30
2018-12-16T01:00:42.203Z,12.27
2018-12-16T01:03:25.684Z,14.33
2018-12-16T01:06:10.894Z,13.67
2018-12-16T01:08:53.838Z,12.80
2018-12-16T01:11:36.716Z,13.60
2018-12-16T01:14:19.548Z,13.63
2018-12-16T01:17:02.321Z,14.07
2018-12-16T01:19:45.201Z,12.23
2018-12-16T01:22:28.188Z,12.60
2018-12-16T01:25:10.913Z,12.53
2018-12-16T01:27:54.376Z,13.60
2018-12-16T01:30:37.411Z,15.03
2018-12-16T01:33:29.667Z,12.33
2018-12-16T01:36:13.008Z,14.63
2018-12-16T01:38:57.641Z,13.83
2018-12-16T01:41:41.764Z,12.70
2018-12-16T01:44:25.273Z,14.07
2018-12-16T01:47:08.238Z,13.57
2018-12-16T01:49:51.949Z,13.80
2018-12-16T01:52:36.226Z,14.27
2018-12-16T01:55:24.514Z,14.20
2018-12-16T01:58:06.834Z,13.57
2018-12-16T02:00:50.098Z,13.13
2018-12-16T02:03:34.786Z,13.60
2018-12-16T02:06:18.013Z,13.10
2018-12-16T02:09:00.805Z,13.63
2018-12-16T02:11:44.855Z,13.87
2018-12-16T02:14:30.234Z,13.90
2018-12-16T02:17:13.746Z,13.17
2018-12-16T02:19:55.916Z,13.00
2018-12-16T02:22:39.144Z,14.33
2018-12-16T02:25:23.249Z,14.20
2018-12-16T02:28:08.207Z,14.17
2018-12-16T02:30:51.793Z,13.47
2018-12-16T02:33:34.930Z,13.23
2018-12-16T02:36:17.444Z,13.50
2018-12-16T02:39:01.655Z,14.53
2018-12-16T02:41:45.496Z,14.27
2018-12-16T02:44:29.021Z,14.43
2018-12-16T02:47:12.731Z,14.13
2018-12-16T02:49:55.684Z,14.67
2018-12-16T02:52:39.966Z,14.90
2018-12-16T02:55:23.108Z,14.17
2018-12-16T02:58:07.652Z,14.67
2018-12-16T03:00:50.189Z,13.80
2018-12-16T03:03:32.702Z,14.83
2018-12-16T03:06:17.515Z,15.33
2018-12-16T03:09:00.770Z,15.67
2018-12-16T03:11:43.392Z,15.27
2018-12-16T03:14:27.016Z,15.70
2018-12-16T03:17:10.657Z,14.53
2018-12-16T03:19:54.732Z,15.87
2018-12-16T03:22:39.015Z,15.57
2018-12-16T03:25:22.418Z,15.00
2018-12-16T03:28:05.364Z,15.17
2018-12-16T03:30:47.735Z,15.43
2018-12-16T03:33:32.477Z,14.13
2018-12-16T03:36:16.865Z,15.27
2018-12-16T03:38:59.342Z,14.30
2018-12-16T03:41:42.272Z,15.17
2018-12-16T03:44:26.239Z,14.93
2018-12-16T03:47:11.398Z,15.97
2018-12-16T03:49:54.608Z,16.07
2018-12-16T03:52:38.204Z,16.47
2018-12-16T03:55:21.613Z,16.10
2018-12-16T03:58:05.012Z,15.20
2018-12-16T04:00:48.438Z,15.83
2018-12-16T04:03:31.669Z,16.70
2018-12-16T04:06:14.935Z,14.23
2018-12-16T04:08:58.159Z,15.47
2018-12-16T04:11:42.766Z,16.80
2018-12-16T04:14:27.754Z,15.33
2018-12-16T04:17:15.126Z,16.53
2018-12-16T04:20:00.457Z,17.97
2018-12-16T04:22:47.293Z,16.70
2018-12-16T04:25:32.663Z,16.40
2018-12-16T04:28:15.892Z,16.67
2018-12-16T04:30:59.065Z,15.23
2018-12-16T04:33:42.133Z,16.27
2018-12-16T04:36:24.772Z,15.90
2018-12-16T04:39:09.397Z,17.03
2018-12-16T04:41:53.127Z,15.40
2018-12-16T04:44:36.758Z,16.77
2018-12-16T04:47:20.540Z,15.30
2018-12-16T04:50:03.272Z,13.93
2018-12-16T04:52:45.466Z,17.20
2018-12-16T04:55:29.621Z,16.30
2018-12-16T04:58:12.694Z,16.03
2018-12-16T05:00:56.215Z,17.00
2018-12-16T05:03:39.129Z,16.50
2018-12-16T05:06:22.326Z,16.63
2018-12-16T05:09:06.994Z,15.20
2018-12-16T05:11:50.600Z,14.97
2018-12-16T05:14:34.460Z,16.03
2018-12-16T05:17:17.392Z,15.90
2018-12-16T05:20:00.883Z,13.70
2018-12-16T05:22:44.007Z,13.60
2018-12-16T05:25:26.593Z,15.03
2018-12-16T05:28:09.742Z,15.57
2018-12-16T05:30:52.913Z,15.63
2018-12-16T05:33:36.246Z,15.47
2018-12-16T05:36:19.146Z,16.43
2018-12-16T05:39:02.753Z,15.77
2018-12-16T05:41:45.588Z,16.87
2018-12-16T05:44:28.347Z,15.50
2018-12-16T05:47:16.855Z,16.37
2018-12-16T05:50:01.296Z,16.33
2018-12-16T05:52:44.968Z,16.10
2018-12-16T05:55:28.717Z,16.47
2018-12-16T05:58:11.740Z,16.73
2018-12-16T06:00:55.953Z,16.20
2018-12-16T06:03:38.577Z,16.10
2018-12-16T06:06:23.464Z,18.40
2018-12-16T06:09:07.282Z,16.63
2018-12-16T06:11:53.439Z,16.30
2018-12-16T06:14:36.611Z,17.07
2018-12-16T06:17:20.556Z,17.70
2018-12-16T06:20:04.264Z,17.60
2018-12-16T06:22:47.568Z,19.83
2018-12-16T06:25:30.785Z,19.23
2018-12-16T06:28:18.856Z,18.27
2018-12-16T06:31:02.112Z,18.47
2018-12-16T06:33:46.396Z,19.17
2018-12-16T06:36:29.023Z,18.47
2018-12-16T06:39:13.738Z,19.37
2018-12-16T06:41:57.537Z,19.03
2018-12-16T06:44:41.526Z,18.33
2018-12-16T06:47:24.376Z,19.03
2018-12-16T06:50:08.856Z,21.37
2018-12-16T06:52:52.016Z,20.70
2018-12-16T06:58:08.461Z,20.77
2018-12-16T07:00:51.845Z,22.73
2018-12-16T07:03:35.271Z,22.47
2018-12-16T07:06:18.627Z,23.30
2018-12-16T07:09:03.129Z,25.70
2018-12-16T07:11:48.767Z,23.70
2018-12-16T07:14:35.040Z,26.43
2018-12-16T07:17:18.878Z,26.13
2018-12-16T07:20:02.381Z,24.27
2018-12-16T07:22:47.791Z,23.00
2018-12-16T07:25:32.409Z,24.03
2018-12-16T07:28:17.406Z,25.53
2018-12-16T07:31:02.799Z,25.03
2018-12-16T07:33:46.459Z,23.17
2018-12-16T07:36:32.141Z,27.03
2018-12-16T07:39:17.178Z,23.97
2018-12-16T07:42:01.008Z,22.67
2018-12-16T07:44:45.169Z,22.67
2018-12-16T07:47:30.022Z,23.93
2018-12-16T07:50:13.169Z,22.87
2018-12-16T07:53:01.312Z,23.80
2018-12-16T07:55:46.465Z,24.20
2018-12-16T07:58:31.646Z,26.03
2018-12-16T08:01:17.602Z,24.53
2018-12-16T08:04:03.310Z,24.47
2018-12-16T08:06:50.057Z,26.57
2018-12-16T08:09:36.291Z,24.10
2018-12-16T08:12:20.540Z,27.37
2018-12-16T08:15:06.556Z,27.77
2018-12-16T08:17:51.424Z,33.43
2018-12-16T08:20:39.796Z,30.13
2018-12-16T08:23:28.481Z,29.83
2018-12-16T08:26:11.802Z,32.07
2018-12-16T08:28:56.123Z,32.67
2018-12-16T08:31:41.960Z,36.97
2018-12-16T08:34:24.705Z,34.30
2018-12-16T08:37:08.541Z,39.57
2018-12-16T08:39:52.871Z,33.47
2018-12-16T08:42:44.697Z,36.77
2018-12-16T08:45:29.698Z,35.57
2018-12-16T08:48:16.437Z,36.13
2018-12-16T08:50:59.400Z,35.23
2018-12-16T08:53:45.788Z,33.60
2018-12-16T08:56:31.201Z,34.10
2018-12-16T08:59:15.349Z,31.80
2018-12-16T09:02:00.316Z,34.33
2018-12-16T09:04:44.911Z,31.87
2018-12-16T09:07:37.052Z,33.40
2018-12-16T09:10:16.266Z,32.33
2018-12-16T09:13:03.196Z,30.93
2018-12-16T09:15:49.972Z,31.63
2018-12-16T09:18:35.963Z,32.33
2018-12-16T09:21:20.714Z,34.33
2018-12-16T09:24:04.244Z,33.87
2018-12-16T09:26:47.864Z,31.27
2018-12-16T09:29:34.592Z,30.90
2018-12-16T09:32:18.178Z,31.13
2018-12-16T09:35:02.659Z,33.27
2018-12-16T09:37:47.052Z,32.97
2018-12-16T09:40:32.083Z,32.27
2018-12-16T09:43:15.820Z,31.33
2018-12-16T09:45:59.769Z,31.17
2018-12-16T09:48:42.756Z,31.93
2018-12-16T09:51:26.292Z,31.30
2018-12-16T09:54:09.990Z,27.07
2018-12-16T09:56:54.955Z,27.40
2018-12-16T09:59:38.997Z,27.60
2018-12-16T10:02:23.743Z,26.93
2018-12-16T10:05:07.412Z,27.10
2018-12-16T10:07:51.807Z,28.83
2018-12-16T10:10:35.028Z,25.43
2018-12-16T10:13:19.972Z,25.37
2018-12-16T10:16:02.794Z,25.23
2018-12-16T10:18:45.406Z,25.93
2018-12-16T10:21:29.174Z,25.37
2018-12-16T10:24:13.666Z,25.60
2018-12-16T10:27:01.862Z,30.43
2018-12-16T10:29:46.678Z,28.70
2018-12-16T10:32:34.616Z,27.27
2018-12-16T10:35:19.512Z,28.63
2018-12-16T10:38:02.812Z,27.33
2018-12-16T10:40:48.243Z,28.20
2018-12-16T10:43:32.164Z,26.67
2018-12-16T10:46:16.163Z,27.37
2018-12-16T10:49:04.721Z,28.30
2018-12-16T10:51:48.676Z,25.37
2018-12-16T10:54:31.484Z,27.13
2018-12-16T10:57:15.515Z,26.43
2018-12-16T10:59:59.453Z,22.80
2018-12-16T11:02:43.562Z,27.97
2018-12-16T11:05:27.554Z,24.10
2018-12-16T11:08:12.214Z,24.53
2018-12-16T11:10:58.485Z,25.83
2018-12-16T11:13:44.578Z,25.00
2018-12-16T11:16:28.444Z,24.53
2018-12-16T11:19:12.771Z,28.07
2018-12-16T11:21:57.151Z,27.80
2018-12-16T11:24:41.777Z,25.73
2018-12-16T11:27:27.452Z,25.27
2018-12-16T11:30:12.056Z,26.80
2018-12-16T11:32:57.314Z,23.83
2018-12-16T11:35:40.376Z,25.03
2018-12-16T11:38:24.510Z,27.47
2018-12-16T11:41:08.140Z,25.23
2018-12-16T11:43:52.368Z,28.67
2018-12-16T11:46:35.796Z,27.57
2018-12-16T11:49:19.352Z,29.03
2018-12-16T11:52:02.636Z,33.83
2018-12-16T11:54:46.728Z,28.13
2018-12-16T11:57:30.918Z,26.70
2018-12-16T12:00:15.006Z,26.97
2018-12-16T12:02:58.484Z,26.40
2018-12-16T12:05:41.854Z,25.57
2018-12-16T12:08:24.640Z,24.53
2018-12-16T12:11:10.958Z,24.83
2018-12-16T12:13:55.436Z,28.67
2018-12-16T12:16:39.777Z,26.90
2018-12-16T12:19:27.532Z,25.83
2018-12-16T12:22:11.576Z,24.53
2018-12-16T12:24:55.876Z,25.13
2018-12-16T12:27:40.756Z,23.20
2018-12-16T12:30:26.690Z,25.30
2018-12-16T12:33:10.629Z,27.07
2018-12-16T12:35:55.404Z,27.33
2018-12-16T12:38:40.353Z,26.23
2018-12-16T12:41:22.716Z,25.77
2018-12-16T12:44:06.566Z,24.97
2018-12-16T12:46:50.741Z,24.10
2018-12-16T12:49:33.957Z,27.77
2018-12-16T12:52:18.890Z,24.10
2018-12-16T12:55:03.501Z,25.17
2018-12-16T12:57:47.948Z,24.93
2018-12-16T13:00:35.257Z,24.57
2018-12-16T13:03:18.613Z,25.00
2018-12-16T13:06:02.916Z,21.93
2018-12-16T13:08:47.657Z,23.87
2018-12-16T13:11:31.109Z,25.17
2018-12-16T13:14:16.405Z,26.37
2018-12-16T13:16:59.919Z,47.60
2018-12-16T13:19:46.234Z,23.27
2018-12-16T13:22:29.501Z,22.37
2018-12-16T13:25:24.061Z,24.40
2018-12-16T13:28:07.740Z,24.07
2018-12-16T13:30:53.835Z,24.53
2018-12-16T13:33:37.859Z,22.43
2018-12-16T13:36:22.759Z,23.83
2018-12-16T13:39:10.106Z,26.90
2018-12-16T13:41:53.762Z,23.67
2018-12-16T13:44:38.814Z,26.13
2018-12-16T13:47:22.659Z,23.07
2018-12-16T13:50:06.521Z,24.43
2018-12-16T13:52:49.377Z,25.57
2018-12-16T13:55:33.477Z,27.27
2018-12-16T13:58:16.445Z,27.00
2018-12-16T14:01:01.905Z,24.10
2018-12-16T14:03:45.963Z,23.77
2018-12-16T14:06:29.786Z,25.37
2018-12-16T14:09:12.444Z,24.07
2018-12-16T14:11:56.866Z,25.50
2018-12-16T14:14:41.823Z,27.27
2018-12-16T14:17:26.897Z,25.93
2018-12-16T14:20:12.013Z,29.07
2018-12-16T14:22:57.107Z,25.83
2018-12-16T14:25:47.947Z,28.97
2018-12-16T14:28:28.744Z,25.00
2018-12-16T14:31:12.502Z,28.17
2018-12-16T14:33:56.365Z,26.50
2018-12-16T14:36:46.556Z,28.33
2018-12-16T14:39:31.867Z,31.23
2018-12-16T14:42:20.768Z,29.70
2018-12-16T14:45:05.390Z,30.27
2018-12-16T14:47:48.336Z,31.37
2018-12-16T14:50:31.124Z,29.83
2018-12-16T14:53:15.109Z,31.20
2018-12-16T14:55:59.004Z,27.13
2018-12-16T14:58:43.199Z,28.73
2018-12-16T15:01:27.249Z,29.80
2018-12-16T15:04:09.917Z,32.00
2018-12-16T15:06:54.499Z,28.37
2018-12-16T15:09:39.021Z,27.27
2018-12-16T15:12:26.216Z,27.50
2018-12-16T15:15:10.089Z,26.97
2018-12-16T15:17:53.342Z,27.47
2018-12-16T15:20:36.461Z,26.97
2018-12-16T15:23:21.614Z,25.37
2018-12-16T15:26:05.258Z,27.90
2018-12-16T15:28:49.702Z,24.27
2018-12-16T15:31:34.741Z,25.70
2018-12-16T15:34:18.851Z,27.80
2018-12-16T15:37:03.786Z,27.00
2018-12-16T15:39:47.842Z,31.33
2018-12-16T15:42:30.729Z,26.87
2018-12-16T15:45:18.478Z,27.73
2018-12-16T15:48:02.532Z,24.37
2018-12-16T15:50:45.557Z,25.23
2018-12-16T15:53:29.715Z,22.77
2018-12-16T15:56:13.792Z,25.37
2018-12-16T15:58:57.504Z,24.87
2018-12-16T16:01:41.550Z,25.40
2018-12-16T16:04:25.406Z,26.60
2018-12-16T16:07:08.218Z,26.23
2018-12-16T16:09:56.867Z,28.93
2018-12-16T16:12:44.582Z,27.17
2018-12-16T16:15:27.837Z,29.23
2018-12-16T16:18:11.292Z,30.53
2018-12-16T16:20:54.863Z,28.40
2018-12-16T16:23:38.289Z,29.73
2018-12-16T16:26:25.294Z,27.20
2018-12-16T16:29:10.291Z,33.17
2018-12-16T16:32:00.131Z,27.87
2018-12-16T16:34:43.229Z,31.53
2018-12-16T16:38:32.827Z,30.20
2018-12-16T16:41:58.293Z,29.53
2018-12-16T16:44:30.155Z,28.47
2018-12-16T16:47:05.306Z,30.23
2018-12-16T16:49:40.558Z,32.33
2018-12-16T16:52:14.587Z,28.83
2018-12-16T16:54:45.144Z,31.07
2018-12-16T16:57:17.857Z,28.17
2018-12-16T16:59:49.797Z,27.10
2018-12-16T17:02:22.341Z,26.57
2018-12-16T17:04:53.594Z,28.60
2018-12-16T17:07:25.624Z,30.50
2018-12-16T17:09:57.006Z,26.83
2018-12-16T17:12:59.995Z,28.53
2018-12-16T17:15:33.421Z,29.77
2018-12-16T17:18:04.802Z,30.07
2018-12-16T17:20:37.969Z,28.63
2018-12-16T17:23:10.020Z,27.37
2018-12-16T17:25:48.470Z,28.63
2018-12-16T17:28:19.696Z,28.80
2018-12-16T17:30:50.433Z,28.43
2018-12-16T17:33:23.212Z,25.07
2018-12-16T17:35:53.669Z,27.47
2018-12-16T17:38:23.759Z,27.60
2018-12-16T17:40:53.798Z,27.73
2018-12-16T17:43:25.769Z,28.63
2018-12-16T17:45:57.070Z,30.60
2018-12-16T17:48:28.054Z,30.07
2018-12-16T17:50:58.979Z,30.30
2018-12-16T17:53:30.190Z,29.40
2018-12-16T17:56:10.699Z,28.67
2018-12-16T17:59:00.181Z,29.53
2018-12-16T18:01:48.201Z,30.23
2018-12-16T18:04:21.838Z,28.70
2018-12-16T18:06:55.916Z,31.10
2018-12-16T18:09:27.024Z,26.00
2018-12-16T18:11:57.416Z,30.13
2018-12-16T18:14:28.061Z,31.30
2018-12-16T18:17:00.629Z,28.83
2018-12-16T18:19:34.090Z,27.87
2018-12-16T18:22:04.971Z,29.90
2018-12-16T18:24:37.397Z,29.27
2018-12-16T18:27:09.724Z,31.13
2018-12-16T18:29:41.262Z,32.57
2018-12-16T18:32:12.617Z,28.03
2018-12-16T18:34:45.031Z,29.53
2018-12-16T18:37:17.731Z,30.00
2018-12-16T18:39:48.677Z,28.60
2018-12-16T18:42:19.161Z,28.63
2018-12-16T18:44:49.709Z,29.90
2018-12-16T18:47:22.803Z,30.47
2018-12-16T18:49:53.342Z,28.53
2018-12-16T18:52:24.440Z,28.97
2018-12-16T18:55:03.217Z,28.13
2018-12-16T18:57:35.997Z,27.07
2018-12-16T19:00:10.369Z,27.73
2018-12-16T19:02:41.205Z,29.23
2018-12-16T19:05:12.993Z,30.43
2018-12-16T19:07:45.118Z,31.63
2018-12-16T19:10:18.551Z,30.17
2018-12-16T19:12:50.862Z,28.90
2018-12-16T19:15:22.437Z,28.33
2018-12-16T19:18:01.157Z,27.53
2018-12-16T19:20:34.122Z,26.93
2018-12-16T19:23:04.561Z,30.10
2018-12-16T19:25:35.444Z,28.67
2018-12-16T19:28:07.329Z,25.93
2018-12-16T19:30:38.923Z,28.47
2018-12-16T19:33:09.413Z,26.67
2018-12-16T19:35:41.926Z,24.73
2018-12-16T19:38:12.790Z,28.30
2018-12-16T19:40:44.124Z,25.63
2018-12-16T19:43:15.277Z,25.47
2018-12-16T19:45:47.021Z,29.87
2018-12-16T19:48:18.181Z,29.37
2018-12-16T19:50:48.880Z,28.30
2018-12-16T19:53:19.689Z,29.73
2018-12-16T19:55:50.479Z,31.00
2018-12-16T19:58:21.682Z,33.57
2018-12-16T20:00:53.490Z,32.17
2018-12-16T20:03:24.144Z,33.43
2018-12-16T20:06:00.926Z,34.23
2018-12-16T20:08:34.382Z,32.57
2018-12-16T20:11:06.011Z,37.57
2018-12-16T20:13:37.268Z,35.23
2018-12-16T20:16:10.812Z,36.63
2018-12-16T20:18:40.643Z,33.37
2018-12-16T20:21:11.664Z,38.40
2018-12-16T20:23:44.177Z,35.17
2018-12-16T20:26:17.360Z,39.20
2018-12-16T20:28:51.206Z,36.60
2018-12-16T20:31:23.341Z,35.53
2018-12-16T20:33:54.130Z,35.70
2018-12-16T20:36:24.329Z,41.50
2018-12-16T20:38:56.000Z,40.83
2018-12-16T20:41:27.058Z,41.00
2018-12-16T20:44:03.971Z,47.50
2018-12-16T20:46:36.260Z,48.50
2018-12-16T20:49:07.469Z,44.63
2018-12-16T20:51:45.937Z,42.03
2018-12-16T20:54:18.864Z,39.50
2018-12-16T20:56:51.093Z,39.70
2018-12-16T20:59:20.929Z,38.73
2018-12-16T21:01:51.469Z,37.13
2018-12-16T21:04:22.784Z,38.57
2018-12-16T21:06:54.452Z,43.27
2018-12-16T21:09:24.248Z,46.60
2018-12-16T21:12:01.917Z,47.93
2018-12-16T21:14:37.828Z,50.30
2018-12-16T21:17:14.537Z,50.10
2018-12-16T21:19:46.016Z,49.43
2018-12-16T21:26:01.881Z,44.70
2018-12-16T21:28:39.101Z,50.07
2018-12-16T21:31:17.084Z,51.33
2018-12-16T21:33:53.733Z,46.00
2018-12-16T21:36:30.292Z,42.67
2018-12-16T21:39:08.934Z,41.00
2018-12-16T21:41:44.630Z,40.00
2018-12-16T21:44:20.249Z,35.40
2018-12-16T21:46:57.480Z,33.13
2018-12-16T21:49:28.190Z,31.93
2018-12-16T21:51:58.389Z,35.10
2018-12-16T21:54:28.724Z,34.07
2018-12-16T21:57:00.373Z,33.63
2018-12-16T21:59:31.641Z,32.67
2018-12-16T22:02:01.874Z,34.10
2018-12-16T22:04:32.976Z,33.87
2018-12-16T22:07:03.537Z,32.97
2018-12-16T22:09:33.020Z,32.13
2018-12-16T22:12:03.143Z,31.57
2018-12-16T22:14:33.027Z,30.70
2018-12-16T22:17:05.019Z,31.37
2018-12-16T22:19:35.546Z,29.57
2018-12-16T22:22:05.970Z,31.40
2018-12-16T22:24:35.270Z,33.77
2018-12-16T22:27:06.525Z,32.53
2018-12-16T22:29:40.009Z,33.53
2018-12-16T22:32:13.159Z,32.13
2018-12-16T22:34:44.715Z,34.53
2018-12-16T22:37:16.820Z,34.23
2018-12-16T22:39:50.520Z,35.00
2018-12-16T22:42:20.909Z,33.57
2018-12-16T22:44:51.099Z,34.77
2018-12-16T22:47:21.515Z,36.57
2018-12-16T22:49:54.271Z,33.50
2018-12-16T22:52:24.742Z,34.17
2018-12-16T22:54:55.445Z,32.73
2018-12-16T22:57:25.069Z,34.57
2018-12-16T22:59:55.465Z,37.40
2018-12-16T23:02:25.555Z,36.70
2018-12-16T23:04:56.628Z,35.57
2018-12-16T23:07:26.366Z,33.93
2018-12-16T23:09:55.799Z,32.87
2018-12-16T23:12:25.654Z,28.63
2018-12-16T23:14:55.717Z,27.10
2018-12-16T23:17:26.869Z,26.53
2018-12-16T23:20:02.249Z,26.30
2018-12-16T23:22:32.867Z,23.67
2018-12-16T23:25:03.108Z,24.57
2018-12-16T23:27:33.747Z,25.67
2018-12-16T23:30:04.181Z,25.37
2018-12-16T23:32:37.923Z,24.57
2018-12-16T23:35:08.348Z,27.10
2018-12-16T23:37:37.980Z,26.73
2018-12-16T23:40:07.975Z,27.67
2018-12-16T23:42:37.551Z,28.07
2018-12-16T23:45:08.670Z,30.33
2018-12-16T23:47:38.377Z,27.77
2018-12-16T23:50:08.292Z,26.43
2018-12-16T23:52:38.231Z,25.70
2018-12-16T23:55:08.917Z,26.67
2018-12-16T23:57:38.327Z,28.07
